Time;durP1;ratioP1;P1;durP2;ratioP2;P2;SDS_P1;SDS_P2;PMS_P1;PMS_P2;Temp;Humidity;BMP_temperature;BMP_pressure;BME280_temperature;BME280_humidity;BME280_pressure;Samples;Min_cycle;Max_cycle;Signal;HPM_P1;HPM_P2
2023/07/27 00:00:07;;;;;;;6.10;3.97;;;18.10;90.60;;;;;;4997578;28;20088;-79
2023/07/27 00:02:33;;;;;;;7.95;3.70;;;18.10;90.60;;;;;;4984709;28;20029;-79
2023/07/27 00:04:58;;;;;;;9.75;4.55;;;18.10;90.70;;;;;;4995888;28;20030;-79
2023/07/27 00:07:24;;;;;;;5.82;3.92;;;18.10;90.60;;;;;;4995484;28;20474;-79
2023/07/27 00:09:50;;;;;;;7.60;4.47;;;18.10;90.80;;;;;;4996872;28;20470;-78
2023/07/27 00:12:16;;;;;;;6.70;4.05;;;18.10;90.80;;;;;;4996144;28;20037;-78
2023/07/27 00:14:41;;;;;;;8.35;4.70;;;18.10;91.00;;;;;;5002129;28;20042;-79
2023/07/27 00:17:07;;;;;;;4.78;3.83;;;18.00;91.10;;;;;;4998725;28;20733;-78
2023/07/27 00:19:33;;;;;;;5.32;3.60;;;18.00;91.10;;;;;;4987947;28;20084;-78
2023/07/27 00:21:58;;;;;;;8.15;3.67;;;18.00;91.10;;;;;;4997284;28;20580;-78
2023/07/27 00:24:24;;;;;;;10.93;3.97;;;18.10;91.30;;;;;;4987770;28;20105;-78
2023/07/27 00:26:49;;;;;;;5.80;3.78;;;18.10;91.40;;;;;;4997694;28;20037;-78
2023/07/27 00:29:15;;;;;;;9.15;3.88;;;18.20;91.20;;;;;;4977245;28;20084;-79
2023/07/27 00:31:41;;;;;;;8.40;4.28;;;18.30;91.20;;;;;;4995782;28;20022;-78
2023/07/27 00:34:06;;;;;;;6.28;4.03;;;18.30;91.10;;;;;;4999370;28;20321;-78
2023/07/27 00:36:32;;;;;;;5.72;4.10;;;18.20;91.20;;;;;;4999117;28;20035;-79
2023/07/27 00:38:57;;;;;;;12.05;4.60;;;18.30;91.30;;;;;;4985009;28;20045;-78
2023/07/27 00:41:23;;;;;;;7.47;4.22;;;18.20;91.40;;;;;;4995845;28;20025;-78
2023/07/27 00:43:48;;;;;;;8.32;4.07;;;18.20;91.80;;;;;;4986530;28;20054;-78
2023/07/27 00:46:15;;;;;;;7.22;4.03;;;18.20;91.80;;;;;;4979682;28;20084;-78
2023/07/27 00:48:40;;;;;;;7.68;4.00;;;18.10;92.30;;;;;;4999653;28;20034;-79
2023/07/27 00:51:07;;;;;;;8.18;4.45;;;18.10;92.70;;;;;;4987516;28;20164;-79
2023/07/27 00:53:33;;;;;;;12.60;5.20;;;18.10;92.90;;;;;;4997088;28;20038;-78
2023/07/27 00:56:01;;;;;;;11.20;5.15;;;18.10;93.00;;;;;;4986011;28;20769;-79
2023/07/27 00:58:26;;;;;;;8.32;4.47;;;18.20;93.30;;;;;;4984504;28;20109;-78
2023/07/27 01:00:52;;;;;;;6.43;4.40;;;18.20;93.50;;;;;;4995982;28;20391;-79
2023/07/27 01:03:18;;;;;;;10.27;4.45;;;18.10;93.50;;;;;;4993273;28;20080;-79
2023/07/27 01:05:44;;;;;;;5.45;4.32;;;18.10;93.90;;;;;;4997766;28;20100;-78
2023/07/27 01:08:10;;;;;;;9.57;4.30;;;18.20;93.90;;;;;;4992600;28;20713;-79
2023/07/27 01:10:46;;;;;;;7.68;4.80;;;18.20;94.30;;;;;;4984806;28;20109;-81
2023/07/27 01:13:26;;;;;;;8.80;4.22;;;18.10;94.60;;;;;;4995212;28;20162;-79
2023/07/27 01:16:00;;;;;;;9.65;4.85;;;18.00;93.90;;;;;;4986538;28;20037;-79
2023/07/27 01:18:44;;;;;;;9.88;4.85;;;17.80;94.40;;;;;;5000345;28;20216;-80
2023/07/27 01:21:12;;;;;;;8.23;4.15;;;17.80;94.20;;;;;;4994867;28;20045;-80
2023/07/27 01:23:45;;;;;;;7.22;4.35;;;17.90;94.10;;;;;;4986041;28;20026;-79
2023/07/27 01:26:34;;;;;;;8.18;4.70;;;17.90;93.80;;;;;;4995562;28;20026;-79
2023/07/27 01:29:47;;;;;;;6.50;4.47;;;17.90;93.90;;;;;;4994166;28;20061;-79
2023/07/27 01:32:15;;;;;;;6.47;4.28;;;17.90;94.60;;;;;;4971462;28;20153;-79
2023/07/27 01:34:43;;;;;;;6.63;4.10;;;18.00;94.20;;;;;;4991702;28;20063;-80
2023/07/27 01:37:11;;;;;;;9.70;4.90;;;18.00;94.20;;;;;;4987309;28;20026;-79
2023/07/27 01:39:43;;;;;;;6.93;4.60;;;18.00;94.60;;;;;;4977034;28;20033;-79
2023/07/27 01:42:13;;;;;;;7.80;4.65;;;17.90;94.40;;;;;;4974508;28;20488;-80
2023/07/27 01:44:39;;;;;;;6.03;4.43;;;17.80;94.70;;;;;;4985401;28;20482;-80
2023/07/27 01:47:07;;;;;;;10.40;4.03;;;17.90;94.90;;;;;;4997110;28;20541;-80
2023/07/27 01:49:35;;;;;;;6.10;3.88;;;17.80;94.90;;;;;;4985462;28;20500;-79
2023/07/27 01:52:03;;;;;;;7.93;4.60;;;17.90;95.10;;;;;;5141916;22;20053;-80
2023/07/27 01:54:29;;;;;;;6.93;4.35;;;17.90;94.80;;;;;;4995951;28;20375;-80
2023/07/27 01:56:55;;;;;;;11.35;4.40;;;17.90;94.70;;;;;;5017406;28;20040;-79
2023/07/27 01:59:22;;;;;;;7.88;4.50;;;17.90;94.70;;;;;;5017584;28;20056;-79
2023/07/27 02:01:49;;;;;;;6.53;4.47;;;17.90;95.00;;;;;;5017055;28;20026;-79
2023/07/27 02:04:14;;;;;;;5.60;4.32;;;17.70;95.20;;;;;;5014257;28;20034;-80
2023/07/27 02:06:40;;;;;;;9.30;5.50;;;17.60;95.60;;;;;;5016800;28;20695;-80
2023/07/27 02:09:06;;;;;;;10.50;4.57;;;17.40;96.10;;;;;;5006297;28;20394;-80
2023/07/27 02:11:32;;;;;;;6.13;4.22;;;17.50;96.30;;;;;;5016433;28;20022;-79
2023/07/27 02:14:26;;;;;;;6.38;4.50;;;17.60;96.40;;;;;;5017187;28;20041;-80
2023/07/27 02:17:04;;;;;;;10.52;4.97;;;17.40;96.70;;;;;;4950326;28;20072;-79
2023/07/27 02:19:32;;;;;;;6.20;4.63;;;17.30;97.00;;;;;;5017490;28;20496;-80
2023/07/27 02:22:00;;;;;;;10.88;4.95;;;17.30;97.10;;;;;;5011261;28;20048;-80
2023/07/27 02:24:26;;;;;;;9.10;4.82;;;17.40;97.30;;;;;;5003745;28;20034;-80
2023/07/27 02:26:52;;;;;;;9.50;5.18;;;17.30;97.00;;;;;;5014811;28;20112;-80
2023/07/27 02:29:18;;;;;;;5.88;4.53;;;17.30;97.40;;;;;;5003967;28;20120;-80
2023/07/27 02:31:43;;;;;;;7.68;4.88;;;17.20;97.60;;;;;;5005248;28;20485;-79
2023/07/27 02:34:10;;;;;;;10.38;5.22;;;17.10;98.10;;;;;;5015573;28;20033;-80
2023/07/27 02:36:35;;;;;;;7.05;4.50;;;17.00;99.40;;;;;;4998066;28;20026;-80
2023/07/27 02:39:01;;;;;;;8.88;4.80;;;17.00;99.90;;;;;;4996687;28;20025;-79
2023/07/27 02:41:27;;;;;;;8.52;5.03;;;17.10;99.10;;;;;;5011321;28;20489;-79
2023/07/27 02:43:52;;;;;;;9.25;5.00;;;17.00;98.80;;;;;;5014845;28;20026;-80
2023/07/27 02:46:18;;;;;;;7.65;5.13;;;16.80;98.90;;;;;;5000796;28;20135;-80
2023/07/27 02:48:46;;;;;;;9.63;4.72;;;16.60;99.40;;;;;;5014204;28;20029;-80
2023/07/27 02:51:12;;;;;;;9.90;5.45;;;16.50;99.90;;;;;;5014806;28;20136;-81
2023/07/27 02:53:37;;;;;;;8.77;5.32;;;16.50;99.90;;;;;;5017926;28;20048;-79
2023/07/27 02:56:04;;;;;;;7.43;5.20;;;16.40;99.90;;;;;;5019052;28;20037;-79
2023/07/27 02:58:30;;;;;;;8.88;5.43;;;16.40;99.90;;;;;;5020393;28;20493;-80
2023/07/27 03:00:58;;;;;;;8.32;5.15;;;16.40;99.90;;;;;;5007956;28;20040;-79
2023/07/27 03:03:25;;;;;;;9.95;5.57;;;16.40;99.90;;;;;;5007957;28;20078;-80
2023/07/27 03:06:03;;;;;;;9.63;5.80;;;16.40;99.90;;;;;;5018527;28;20033;-80
2023/07/27 03:08:30;;;;;;;7.95;5.53;;;16.50;99.90;;;;;;5017678;28;20025;-79
2023/07/27 03:11:01;;;;;;;11.23;5.88;;;16.60;99.90;;;;;;5016748;28;20036;-79
2023/07/27 03:13:27;;;;;;;8.95;5.18;;;16.70;99.90;;;;;;5019264;28;20021;-79
2023/07/27 03:15:53;;;;;;;11.13;6.10;;;16.70;99.90;;;;;;5020226;28;20040;-80
2023/07/27 03:18:20;;;;;;;7.35;5.43;;;16.70;99.90;;;;;;5018267;28;20060;-80
2023/07/27 03:20:46;;;;;;;9.02;5.78;;;16.70;99.90;;;;;;5015715;28;20026;-79
2023/07/27 03:23:11;;;;;;;9.02;5.90;;;16.60;99.90;;;;;;5017232;28;20536;-80
2023/07/27 03:25:38;;;;;;;8.80;5.75;;;16.60;99.90;;;;;;5019600;28;20546;-80
2023/07/27 03:28:10;;;;;;;12.57;6.15;;;16.60;99.90;;;;;;5018387;28;20163;-80
2023/07/27 03:30:38;;;;;;;9.20;6.07;;;16.60;99.90;;;;;;5014908;28;20025;-79
2023/07/27 03:33:07;;;;;;;20.92;6.32;;;16.60;99.90;;;;;;5017972;28;20080;-79
2023/07/27 03:35:33;;;;;;;9.30;4.78;;;16.70;99.90;;;;;;5020585;28;20125;-80
2023/07/27 03:37:59;;;;;;;10.50;5.35;;;16.70;99.90;;;;;;5016093;28;20018;-81
2023/07/27 03:40:25;;;;;;;11.88;5.78;;;16.70;99.90;;;;;;5017184;28;20026;-81
2023/07/27 03:42:50;;;;;;;10.98;5.95;;;16.70;99.90;;;;;;5019470;28;20056;-80
2023/07/27 03:45:16;;;;;;;10.77;5.43;;;16.60;99.90;;;;;;5018081;28;20030;-78
2023/07/27 03:47:42;;;;;;;13.95;7.00;;;16.60;99.90;;;;;;5015998;28;20108;-79
2023/07/27 03:50:09;;;;;;;13.50;5.10;;;16.60;99.90;;;;;;5007941;28;20030;-79
2023/07/27 03:52:34;;;;;;;8.88;5.60;;;16.60;99.90;;;;;;5016226;28;20037;-78
2023/07/27 03:55:00;;;;;;;11.27;5.55;;;16.60;99.90;;;;;;5015560;28;20083;-79
2023/07/27 03:57:25;;;;;;;7.68;5.40;;;16.50;99.90;;;;;;5013089;28;20037;-79
2023/07/27 03:59:55;;;;;;;11.25;5.68;;;16.50;99.90;;;;;;5019199;28;20114;-79
2023/07/27 04:02:22;;;;;;;12.07;5.90;;;16.50;99.90;;;;;;5015134;28;20723;-79
2023/07/27 04:04:48;;;;;;;9.77;6.03;;;16.50;99.90;;;;;;5013289;28;20092;-79
2023/07/27 04:07:14;;;;;;;11.02;6.05;;;16.40;99.90;;;;;;5003620;28;20022;-78
2023/07/27 04:09:39;;;;;;;9.82;6.40;;;16.40;99.90;;;;;;5018306;28;20030;-79
2023/07/27 04:12:05;;;;;;;11.60;5.70;;;16.30;99.90;;;;;;5015523;28;21771;-79
2023/07/27 04:14:31;;;;;;;9.90;5.25;;;16.20;99.90;;;;;;5017053;28;20139;-79
2023/07/27 04:16:57;;;;;;;11.88;5.93;;;16.20;99.90;;;;;;5016145;28;20108;-79
2023/07/27 04:19:22;;;;;;;12.98;5.68;;;16.20;99.90;;;;;;5003156;28;20401;-82
2023/07/27 04:21:48;;;;;;;11.43;5.55;;;16.30;99.90;;;;;;5014078;28;20029;-82
2023/07/27 04:24:16;;;;;;;10.18;5.15;;;16.30;99.90;;;;;;5013256;28;20112;-82
2023/07/27 04:26:41;;;;;;;10.23;5.38;;;16.40;99.90;;;;;;5013979;28;20022;-82
2023/07/27 04:29:07;;;;;;;13.45;5.40;;;16.40;99.90;;;;;;5012122;28;20036;-83
2023/07/27 04:31:32;;;;;;;11.18;5.07;;;16.30;99.90;;;;;;5009142;28;20175;-83
2023/07/27 04:33:58;;;;;;;6.75;5.03;;;16.30;99.90;;;;;;5002320;28;20032;-82
2023/07/27 04:36:26;;;;;;;10.52;5.10;;;16.30;99.90;;;;;;4994478;28;20627;-82
2023/07/27 04:38:51;;;;;;;11.60;5.13;;;16.30;99.90;;;;;;5015941;28;20025;-85
2023/07/27 04:41:17;;;;;;;10.43;5.18;;;16.30;99.90;;;;;;5003194;28;20032;-85
2023/07/27 04:43:43;;;;;;;8.57;4.43;;;16.30;99.90;;;;;;5016731;28;20604;-86
2023/07/27 04:46:08;;;;;;;9.40;4.95;;;16.30;99.90;;;;;;5017709;28;20037;-85
2023/07/27 04:48:34;;;;;;;7.15;4.75;;;16.20;99.90;;;;;;5010020;28;20026;-84
2023/07/27 04:50:59;;;;;;;7.93;4.95;;;16.20;99.90;;;;;;5015559;28;20091;-82
2023/07/27 04:53:25;;;;;;;9.43;4.70;;;16.20;99.90;;;;;;4994332;28;20017;-81
2023/07/27 04:55:53;;;;;;;8.05;4.88;;;16.10;99.90;;;;;;5011487;28;20528;-82
2023/07/27 04:58:19;;;;;;;7.28;4.18;;;16.20;99.90;;;;;;5011591;28;20032;-81
2023/07/27 05:00:44;;;;;;;7.40;4.35;;;16.20;99.90;;;;;;4996823;28;20022;-81
2023/07/27 05:03:10;;;;;;;9.10;4.60;;;16.20;99.90;;;;;;5012551;28;20021;-82
2023/07/27 05:05:42;;;;;;;8.38;4.30;;;16.10;99.90;;;;;;5002664;28;20033;-83
2023/07/27 05:08:08;;;;;;;8.38;5.22;;;16.10;99.90;;;;;;5010635;28;20108;-82
2023/07/27 05:10:34;;;;;;;8.57;4.75;;;16.10;99.90;;;;;;5008969;28;20505;-81
2023/07/27 05:12:59;;;;;;;8.05;4.28;;;16.10;99.90;;;;;;5001201;28;20037;-81
2023/07/27 05:15:25;;;;;;;10.75;5.18;;;16.10;99.90;;;;;;5001912;28;20033;-81
2023/07/27 05:17:50;;;;;;;10.20;4.32;;;16.10;99.90;;;;;;5012064;28;20143;-82
2023/07/27 05:20:16;;;;;;;6.40;4.32;;;16.20;99.90;;;;;;5011481;28;20061;-82
2023/07/27 05:22:42;;;;;;;8.45;5.18;;;16.20;99.90;;;;;;5004093;28;20098;-82
2023/07/27 05:25:10;;;;;;;7.90;4.28;;;16.10;99.90;;;;;;5012935;28;20025;-82
2023/07/27 05:27:36;;;;;;;11.98;5.20;;;16.10;99.90;;;;;;5014011;28;20051;-82
2023/07/27 05:30:02;;;;;;;10.32;4.63;;;16.10;99.90;;;;;;5013903;28;20029;-81
2023/07/27 05:32:28;;;;;;;5.47;4.97;;;16.10;99.90;;;;;;4995978;28;20026;-81
2023/07/27 05:34:54;;;;;;;10.45;4.30;;;16.20;99.90;;;;;;4995204;28;20693;-82
2023/07/27 05:37:20;;;;;;;9.02;4.32;;;16.20;99.90;;;;;;5011442;28;20090;-82
2023/07/27 05:39:48;;;;;;;9.90;4.60;;;16.10;99.90;;;;;;5007899;28;20098;-82
2023/07/27 05:42:14;;;;;;;9.80;4.18;;;16.10;99.90;;;;;;5014243;28;20049;-81
2023/07/27 05:44:39;;;;;;;9.68;4.93;;;16.10;99.90;;;;;;5000684;28;20314;-82
2023/07/27 05:47:05;;;;;;;8.80;5.22;;;16.20;99.90;;;;;;5009412;28;20013;-81
2023/07/27 05:49:31;;;;;;;9.77;5.57;;;16.20;99.90;;;;;;5015315;28;20097;-81
2023/07/27 05:51:57;;;;;;;11.23;5.18;;;16.20;99.90;;;;;;4999889;28;20040;-82
2023/07/27 05:54:23;;;;;;;9.00;4.47;;;16.20;99.90;;;;;;4992762;28;20033;-81
2023/07/27 05:56:48;;;;;;;12.68;4.82;;;16.20;99.90;;;;;;5014308;28;20084;-81
2023/07/27 05:59:14;;;;;;;12.02;5.07;;;16.20;99.90;;;;;;5012365;28;20517;-81
2023/07/27 06:01:41;;;;;;;8.13;4.95;;;16.20;99.90;;;;;;5003404;28;20026;-81
2023/07/27 06:04:07;;;;;;;11.45;4.57;;;16.20;99.90;;;;;;5009818;28;20029;-82
2023/07/27 06:06:33;;;;;;;7.70;4.80;;;16.20;99.90;;;;;;5001229;28;20033;-82
2023/07/27 06:08:59;;;;;;;12.77;5.20;;;16.20;99.90;;;;;;4990500;28;20454;-80
2023/07/27 06:11:25;;;;;;;8.32;4.65;;;16.20;99.90;;;;;;5003130;28;20156;-82
2023/07/27 06:13:50;;;;;;;8.82;5.03;;;16.30;99.90;;;;;;4999957;28;20041;-81
2023/07/27 06:16:16;;;;;;;10.07;5.35;;;16.20;99.90;;;;;;5014476;28;20122;-79
2023/07/27 06:18:42;;;;;;;11.57;5.57;;;16.20;99.90;;;;;;5011381;28;20029;-81
2023/07/27 06:21:07;;;;;;;8.10;4.68;;;16.20;99.90;;;;;;5013657;28;20104;-82
2023/07/27 06:23:33;;;;;;;7.28;4.70;;;16.20;99.90;;;;;;5013840;28;20021;-80
2023/07/27 06:25:58;;;;;;;7.22;4.82;;;16.20;99.90;;;;;;5003512;28;20041;-81
2023/07/27 06:28:24;;;;;;;7.45;4.13;;;16.10;99.90;;;;;;5012435;28;20052;-81
2023/07/27 06:30:50;;;;;;;6.60;4.38;;;16.20;99.90;;;;;;5011797;28;20021;-81
2023/07/27 06:33:15;;;;;;;7.60;4.35;;;16.10;99.90;;;;;;5012715;28;20026;-81
2023/07/27 06:35:41;;;;;;;6.47;4.72;;;16.10;99.90;;;;;;4994758;28;20523;-82
2023/07/27 06:38:07;;;;;;;10.13;6.15;;;16.00;99.90;;;;;;5011944;28;20380;-81
2023/07/27 06:40:33;;;;;;;5.85;3.97;;;16.00;99.90;;;;;;5012354;28;20025;-81
2023/07/27 06:43:01;;;;;;;5.15;4.10;;;16.10;99.90;;;;;;4993340;28;20405;-82
2023/07/27 06:45:27;;;;;;;4.63;4.18;;;16.10;99.90;;;;;;5001954;28;20034;-80
2023/07/27 06:47:52;;;;;;;4.47;3.47;;;16.10;99.90;;;;;;5012375;28;20482;-80
2023/07/27 06:50:18;;;;;;;4.00;3.60;;;16.10;99.90;;;;;;5012005;28;20366;-80
2023/07/27 06:52:44;;;;;;;3.42;3.10;;;16.10;99.90;;;;;;5009752;28;20132;-80
2023/07/27 06:55:10;;;;;;;5.55;4.07;;;16.10;99.90;;;;;;5002636;28;20049;-81
2023/07/27 06:57:36;;;;;;;8.18;3.47;;;16.10;99.90;;;;;;5000308;28;20049;-80
2023/07/27 07:00:02;;;;;;;7.90;3.45;;;16.20;99.90;;;;;;5011420;28;20095;-80
2023/07/27 07:02:28;;;;;;;3.72;3.30;;;16.00;99.90;;;;;;5013653;28;20025;-81
2023/07/27 07:04:53;;;;;;;9.15;3.30;;;16.00;99.90;;;;;;5012264;28;20045;-81
2023/07/27 07:07:19;;;;;;;3.35;3.05;;;15.80;99.90;;;;;;5012493;28;20465;-81
2023/07/27 07:09:46;;;;;;;3.22;2.75;;;15.90;99.90;;;;;;5012779;28;20037;-82
2023/07/27 07:12:11;;;;;;;3.72;2.88;;;16.00;99.90;;;;;;5002233;28;20026;-81
2023/07/27 07:14:37;;;;;;;2.95;2.58;;;16.10;99.90;;;;;;4995870;28;20033;-81
2023/07/27 07:17:03;;;;;;;3.35;2.10;;;16.10;99.90;;;;;;5011806;28;20873;-81
2023/07/27 07:19:29;;;;;;;5.72;2.65;;;16.00;99.90;;;;;;5001407;28;20534;-82
2023/07/27 07:21:54;;;;;;;2.55;2.33;;;16.10;99.90;;;;;;4994178;28;20044;-81
2023/07/27 07:24:20;;;;;;;3.25;2.08;;;16.20;99.90;;;;;;5012369;28;20026;-83
2023/07/27 07:26:45;;;;;;;3.15;1.70;;;16.20;99.90;;;;;;4994882;28;20033;-81
2023/07/27 07:29:12;;;;;;;1.90;1.80;;;16.20;99.90;;;;;;4997104;28;20043;-81
2023/07/27 07:31:37;;;;;;;4.40;2.40;;;16.20;99.90;;;;;;5015380;28;20053;-83
2023/07/27 07:34:04;;;;;;;3.75;1.98;;;16.30;99.90;;;;;;5012075;28;20048;-83
2023/07/27 07:36:29;;;;;;;4.38;2.33;;;16.40;99.90;;;;;;5011279;28;20083;-81
2023/07/27 07:38:55;;;;;;;2.08;1.65;;;16.50;99.90;;;;;;4993362;28;20034;-83
2023/07/27 07:41:21;;;;;;;3.17;1.70;;;16.30;99.90;;;;;;5002950;28;20385;-82
2023/07/27 07:43:48;;;;;;;2.00;1.80;;;16.50;99.90;;;;;;5015246;28;20045;-82
2023/07/27 07:46:14;;;;;;;1.50;1.40;;;16.40;99.90;;;;;;5016338;28;20479;-82
2023/07/27 07:48:39;;;;;;;2.13;1.40;;;16.40;99.90;;;;;;5012015;28;20537;-81
2023/07/27 07:51:12;;;;;;;3.00;1.65;;;16.40;99.90;;;;;;4996629;28;20021;-81
2023/07/27 07:53:38;;;;;;;2.17;1.40;;;16.50;99.90;;;;;;5171718;22;20131;-81
2023/07/27 07:56:04;;;;;;;1.70;1.60;;;16.60;99.90;;;;;;5007072;28;20029;-83
2023/07/27 07:58:31;;;;;;;2.10;1.30;;;16.80;99.90;;;;;;5016593;28;20030;-84
2023/07/27 08:00:57;;;;;;;1.63;1.52;;;16.80;99.90;;;;;;5033256;28;20025;-83
2023/07/27 08:03:22;;;;;;;1.25;1.05;;;16.80;99.90;;;;;;5030343;28;20025;-83
2023/07/27 08:05:50;;;;;;;1.33;1.23;;;16.80;99.90;;;;;;5029328;28;20026;-83
2023/07/27 08:08:18;;;;;;;0.90;0.90;;;16.80;99.90;;;;;;5029433;28;20381;-81
2023/07/27 08:10:44;;;;;;;1.30;1.20;;;16.80;99.90;;;;;;5031799;28;20025;-84
2023/07/27 08:13:09;;;;;;;1.60;1.33;;;16.90;99.90;;;;;;5025568;28;20026;-84
2023/07/27 08:15:35;;;;;;;2.03;1.20;;;16.90;99.90;;;;;;5032121;28;20025;-81
2023/07/27 08:18:01;;;;;;;2.28;1.40;;;16.80;99.90;;;;;;5017914;28;20566;-81
2023/07/27 08:20:27;;;;;;;1.02;1.02;;;16.90;99.90;;;;;;5014133;28;20030;-84
2023/07/27 08:22:52;;;;;;;1.27;1.17;;;16.90;99.90;;;;;;5036584;28;20037;-83
2023/07/27 08:25:18;;;;;;;3.05;1.23;;;16.80;99.90;;;;;;5026505;28;20029;-82
2023/07/27 08:27:43;;;;;;;1.30;1.20;;;16.90;99.90;;;;;;5006100;28;20033;-83
2023/07/27 08:30:10;;;;;;;1.45;1.13;;;16.90;99.90;;;;;;5014277;28;20119;-83
2023/07/27 08:32:36;;;;;;;1.10;1.10;;;17.00;99.90;;;;;;5013563;28;20029;-83
2023/07/27 08:35:02;;;;;;;1.38;1.27;;;17.10;99.90;;;;;;5003189;28;20029;-82
2023/07/27 08:37:30;;;;;;;1.98;1.40;;;17.10;99.90;;;;;;5014824;28;20112;-82
2023/07/27 08:39:58;;;;;;;1.50;1.38;;;17.20;99.90;;;;;;5026914;28;20032;-81
2023/07/27 08:42:24;;;;;;;1.60;1.20;;;17.20;99.90;;;;;;5011589;28;20040;-81
2023/07/27 08:44:49;;;;;;;1.40;1.30;;;17.10;99.90;;;;;;5016905;28;20601;-81
2023/07/27 08:47:16;;;;;;;1.23;1.13;;;17.30;99.90;;;;;;5031325;28;20025;-81
2023/07/27 08:49:44;;;;;;;1.10;1.00;;;17.40;99.90;;;;;;5011222;28;20067;-83
2023/07/27 08:52:13;;;;;;;4.25;1.15;;;17.50;99.90;;;;;;5035234;28;20013;-83
2023/07/27 08:54:38;;;;;;;1.30;1.20;;;17.70;99.90;;;;;;5029011;28;20489;-82
2023/07/27 08:57:04;;;;;;;2.05;1.10;;;17.70;99.90;;;;;;5025839;28;20029;-82
2023/07/27 08:59:30;;;;;;;1.40;1.27;;;17.70;99.90;;;;;;5027533;28;20359;-83
2023/07/27 09:01:56;;;;;;;1.30;1.17;;;17.70;99.90;;;;;;5010518;28;20033;-83
2023/07/27 09:04:21;;;;;;;1.73;1.30;;;17.70;99.90;;;;;;5032813;28;20022;-82
2023/07/27 09:06:49;;;;;;;1.27;1.17;;;17.80;99.90;;;;;;5015023;28;20484;-83
2023/07/27 09:09:20;;;;;;;2.13;1.30;;;17.60;99.90;;;;;;5012445;28;20971;-83
2023/07/27 09:11:46;;;;;;;1.40;1.30;;;17.50;99.90;;;;;;5138919;22;20082;-82
2023/07/27 09:14:18;;;;;;;1.70;1.60;;;17.60;99.90;;;;;;4979266;28;20045;-84
2023/07/27 09:16:44;;;;;;;1.35;1.25;;;17.70;99.90;;;;;;4983623;28;20084;-84
2023/07/27 09:19:11;;;;;;;1.52;1.42;;;17.80;99.90;;;;;;4982184;28;20044;-82
2023/07/27 09:21:44;;;;;;;1.60;1.02;;;18.00;99.90;;;;;;4982839;28;20528;-81
2023/07/27 09:24:14;;;;;;;1.33;1.23;;;18.10;99.90;;;;;;4974953;28;20116;-84
2023/07/27 09:26:51;;;;;;;1.80;1.10;;;18.10;99.90;;;;;;4975388;28;20118;-83
2023/07/27 09:29:19;;;;;;;0.90;0.90;;;18.30;99.90;;;;;;4980478;28;20026;-83
2023/07/27 09:31:57;;;;;;;0.90;0.90;;;18.20;99.90;;;;;;4984519;28;20014;-82
2023/07/27 09:34:24;;;;;;;0.93;0.80;;;18.30;99.90;;;;;;4983275;28;20081;-84
2023/07/27 09:36:53;;;;;;;1.10;1.00;;;18.40;99.90;;;;;;4984177;28;20030;-81
2023/07/27 09:39:18;;;;;;;0.95;0.90;;;18.50;99.90;;;;;;4981757;28;20022;-81
2023/07/27 09:41:46;;;;;;;0.80;0.80;;;18.50;99.90;;;;;;4982097;28;20025;-81
2023/07/27 09:44:17;;;;;;;2.03;0.90;;;18.60;99.90;;;;;;4988140;28;20030;-81
2023/07/27 09:46:44;;;;;;;0.77;0.77;;;18.60;99.90;;;;;;4980330;28;20042;-80
2023/07/27 09:49:11;;;;;;;1.02;1.02;;;18.50;99.90;;;;;;4984236;28;20728;-81
2023/07/27 09:51:37;;;;;;;0.93;0.93;;;18.60;99.90;;;;;;4982427;28;20110;-81
2023/07/27 09:54:04;;;;;;;1.10;1.00;;;18.60;99.90;;;;;;4981018;28;20113;-81
2023/07/27 09:56:34;;;;;;;0.80;0.80;;;18.60;99.90;;;;;;4975667;28;20058;-80
2023/07/27 09:59:00;;;;;;;1.00;0.98;;;18.80;99.90;;;;;;4979544;28;20034;-80
2023/07/27 10:01:27;;;;;;;2.58;1.17;;;18.90;99.90;;;;;;4979905;28;20052;-82
2023/07/27 10:03:57;;;;;;;1.83;1.00;;;18.90;99.90;;;;;;4980990;28;20046;-82
2023/07/27 10:06:27;;;;;;;1.02;0.90;;;18.90;99.90;;;;;;4981401;28;20026;-83
2023/07/27 10:08:56;;;;;;;1.00;1.00;;;18.80;99.90;;;;;;4981905;28;20035;-80
2023/07/27 10:11:30;;;;;;;1.10;1.10;;;18.90;99.90;;;;;;4980289;28;20096;-81
2023/07/27 10:13:57;;;;;;;1.65;1.10;;;18.90;99.90;;;;;;4980435;28;20508;-81
2023/07/27 10:16:27;;;;;;;1.30;1.20;;;18.90;99.90;;;;;;4981608;28;20100;-82
2023/07/27 10:18:53;;;;;;;1.40;1.30;;;19.00;99.90;;;;;;4978921;28;20037;-81
2023/07/27 10:21:26;;;;;;;1.98;1.25;;;19.10;99.90;;;;;;4982319;28;20859;-82
2023/07/27 10:23:52;;;;;;;1.60;1.30;;;19.10;99.90;;;;;;4971005;28;20031;-82
2023/07/27 10:26:19;;;;;;;2.53;1.67;;;19.20;99.90;;;;;;4971729;28;20490;-82
2023/07/27 10:28:48;;;;;;;2.85;1.60;;;19.10;99.90;;;;;;4982644;28;20097;-82
2023/07/27 10:31:14;;;;;;;2.28;1.80;;;19.00;99.90;;;;;;4986004;28;20487;-82
2023/07/27 10:34:02;;;;;;;1.67;1.58;;;19.20;99.90;;;;;;4980783;28;20041;-81
2023/07/27 10:36:46;;;;;;;1.85;1.75;;;19.20;99.90;;;;;;4982476;28;20038;-81
2023/07/27 10:42:07;;;;;;;2.80;1.42;;;19.30;99.90;;;;;;5054780;22;20620;-82
2023/07/27 10:44:42;;;;;;;1.95;1.48;;;19.40;99.90;;;;;;4992053;28;20034;-81
2023/07/27 10:47:15;;;;;;;1.80;1.70;;;19.50;99.90;;;;;;4990458;28;20416;-83
2023/07/27 10:49:47;;;;;;;1.50;1.40;;;19.50;99.90;;;;;;4991977;28;20038;-82
2023/07/27 10:52:17;;;;;;;;;;;19.40;99.90;;;;;;4989757;28;20453;-82
2023/07/27 10:54:44;;;;;;;3.30;1.58;;;19.30;99.90;;;;;;4993571;28;19917;-82
2023/07/27 10:57:12;;;;;;;3.72;1.50;;;19.30;99.90;;;;;;4989697;28;20022;-82
2023/07/27 10:59:39;;;;;;;1.90;1.50;;;19.30;99.90;;;;;;4989747;28;20021;-82
2023/07/27 11:02:25;;;;;;;2.20;2.10;;;19.10;99.90;;;;;;4991921;28;20516;-81
2023/07/27 11:04:54;;;;;;;3.90;1.83;;;19.30;99.90;;;;;;4992354;28;20408;-81
2023/07/27 11:07:50;;;;;;;2.10;1.90;;;19.40;99.90;;;;;;4970313;28;20050;-81
2023/07/27 11:10:16;;;;;;;1.50;1.40;;;19.40;99.90;;;;;;4972879;28;20127;-83
2023/07/27 11:12:48;;;;;;;3.45;1.90;;;19.40;99.90;;;;;;4973328;28;20035;-82
2023/07/27 11:15:18;;;;;;;1.40;1.30;;;19.40;99.90;;;;;;4975469;28;20042;-83
2023/07/27 11:17:44;;;;;;;2.28;1.50;;;19.40;99.90;;;;;;5137816;22;20114;-82
2023/07/27 11:20:11;;;;;;;1.95;1.73;;;19.60;99.90;;;;;;5041354;28;20392;-82
2023/07/27 11:22:37;;;;;;;1.85;1.75;;;19.60;99.90;;;;;;5043005;28;20009;-82
2023/07/27 11:25:06;;;;;;;1.80;1.70;;;19.70;99.90;;;;;;5038673;28;20021;-82
2023/07/27 11:27:32;;;;;;;1.80;1.70;;;19.80;99.90;;;;;;5041113;28;20375;-82
2023/07/27 11:30:01;;;;;;;1.42;1.02;;;19.70;99.90;;;;;;5041149;28;20028;-81
2023/07/27 11:32:27;;;;;;;1.05;1.00;;;19.60;99.90;;;;;;5041765;28;20017;-81
2023/07/27 11:34:56;;;;;;;0.60;0.60;;;19.60;99.90;;;;;;5042609;28;20040;-82
2023/07/27 11:37:29;;;;;;;0.73;0.55;;;19.50;99.90;;;;;;5025324;28;20036;-82
2023/07/27 11:39:56;;;;;;;0.55;0.55;;;19.40;99.90;;;;;;5024476;28;20021;-82
2023/07/27 11:42:35;;;;;;;0.60;0.60;;;19.40;99.90;;;;;;5025694;28;20044;-82
2023/07/27 11:45:03;;;;;;;0.82;0.43;;;19.40;99.90;;;;;;5041945;28;20031;-82
2023/07/27 11:47:36;;;;;;;0.52;0.52;;;19.60;99.90;;;;;;5044524;28;20318;-81
2023/07/27 11:50:03;;;;;;;0.63;0.60;;;19.80;99.90;;;;;;5022207;28;20108;-83
2023/07/27 11:52:29;;;;;;;2.53;0.80;;;19.80;99.90;;;;;;5042077;28;20013;-81
2023/07/27 11:54:57;;;;;;;3.40;0.90;;;19.70;99.90;;;;;;5023763;28;20032;-82
2023/07/27 11:57:27;;;;;;;0.95;0.90;;;19.80;99.90;;;;;;5023753;28;20099;-84
2023/07/27 12:00:12;;;;;;;1.10;1.00;;;19.90;99.90;;;;;;5044281;28;20202;-84
2023/07/27 12:02:46;;;;;;;0.77;0.77;;;19.90;99.90;;;;;;5042380;28;20056;-85
2023/07/27 12:05:13;;;;;;;28.67;11.27;;;20.00;99.90;;;;;;5023099;28;20032;-80
2023/07/27 12:07:39;;;;;;;0.63;0.63;;;20.00;99.90;;;;;;5023715;28;20063;-81
2023/07/27 12:10:11;;;;;;;1.23;0.63;;;19.90;99.90;;;;;;5040048;28;20013;-82
2023/07/27 12:12:52;;;;;;;6.93;0.75;;;19.80;99.90;;;;;;5042997;28;20647;-80
2023/07/27 12:15:27;;;;;;;1.58;0.90;;;19.80;99.90;;;;;;5022701;28;20033;-80
2023/07/27 12:18:04;;;;;;;1.20;1.20;;;20.00;99.90;;;;;;5041735;28;20021;-81
2023/07/27 12:20:38;;;;;;;0.95;0.95;;;19.70;99.90;;;;;;5022836;28;20028;-81
2023/07/27 12:23:03;;;;;;;2.45;0.90;;;19.80;99.90;;;;;;5041340;28;20722;-84
2023/07/27 12:25:29;;;;;;;0.80;0.80;;;19.80;99.90;;;;;;5040472;28;20021;-83
2023/07/27 12:27:55;;;;;;;0.70;0.70;;;19.80;99.90;;;;;;5042627;28;20048;-82
2023/07/27 12:30:23;;;;;;;0.95;0.60;;;19.80;99.90;;;;;;5039019;28;20029;-82
2023/07/27 12:32:49;;;;;;;0.63;0.63;;;19.90;99.90;;;;;;5022218;28;20515;-81
2023/07/27 12:35:16;;;;;;;0.90;0.90;;;19.90;99.90;;;;;;5023907;28;20120;-81
2023/07/27 12:37:43;;;;;;;0.80;0.80;;;19.90;99.90;;;;;;5022164;28;20032;-82
2023/07/27 12:40:09;;;;;;;0.80;0.80;;;19.90;99.90;;;;;;5038987;28;20033;-82
2023/07/27 12:42:35;;;;;;;2.05;0.70;;;20.00;99.90;;;;;;5021766;28;20033;-82
2023/07/27 12:45:01;;;;;;;0.93;0.70;;;19.90;99.90;;;;;;5039685;28;20554;-81
2023/07/27 12:47:26;;;;;;;0.60;0.60;;;19.80;99.90;;;;;;5039078;28;20017;-81
2023/07/27 12:49:52;;;;;;;10.15;0.80;;;19.80;99.90;;;;;;5038364;28;20033;-81